createdAt,value
2023-02-18T00:00:32.362Z,14.93
2023-02-18T00:02:58.850Z,14.94
2023-02-18T00:05:25.217Z,14.92
2023-02-18T00:07:51.495Z,14.92
2023-02-18T00:10:17.816Z,14.91
2023-02-18T00:12:44.153Z,14.91
2023-02-18T00:15:10.509Z,14.91
2023-02-18T00:17:36.813Z,14.90
2023-02-18T00:20:03.141Z,14.91
2023-02-18T00:22:29.574Z,14.88
2023-02-18T00:24:56.041Z,14.87
2023-02-18T00:27:22.584Z,14.87
2023-02-18T00:29:49.490Z,14.87
2023-02-18T00:32:15.939Z,14.86
2023-02-18T00:34:42.260Z,14.88
2023-02-18T00:37:08.966Z,14.87
2023-02-18T00:39:35.351Z,14.84
2023-02-18T00:42:01.674Z,14.83
2023-02-18T00:44:28.034Z,14.86
2023-02-18T00:46:54.599Z,14.85
2023-02-18T00:49:20.922Z,14.84
2023-02-18T00:51:47.330Z,14.85
2023-02-18T00:54:13.681Z,14.85
2023-02-18T00:56:40.124Z,14.84
2023-02-18T00:59:06.635Z,14.84
2023-02-18T01:01:32.987Z,14.85
2023-02-18T01:03:59.389Z,14.84
2023-02-18T01:06:25.776Z,14.83
2023-02-18T01:08:52.155Z,14.83
2023-02-18T01:11:18.505Z,14.84
2023-02-18T01:13:44.894Z,14.83
2023-02-18T01:16:11.580Z,14.83
2023-02-18T01:18:38.550Z,14.82
2023-02-18T01:21:04.898Z,14.83
2023-02-18T01:23:31.450Z,14.82
2023-02-18T01:25:57.805Z,14.82
2023-02-18T01:28:24.209Z,14.83
2023-02-18T01:30:52.200Z,14.82
2023-02-18T01:33:18.853Z,14.81
2023-02-18T01:35:45.284Z,14.81
2023-02-18T01:38:12.185Z,14.80
2023-02-18T01:40:38.531Z,14.82
2023-02-18T01:43:04.968Z,14.80
2023-02-18T01:45:31.456Z,14.79
2023-02-18T01:47:57.845Z,14.81
2023-02-18T01:50:24.187Z,14.81
2023-02-18T01:52:50.594Z,14.79
2023-02-18T01:55:16.951Z,14.80
2023-02-18T01:57:43.395Z,14.80
2023-02-18T02:00:09.957Z,14.80
2023-02-18T02:02:37.698Z,14.78
2023-02-18T02:05:05.519Z,14.77
2023-02-18T02:07:31.896Z,14.78
2023-02-18T02:09:58.642Z,14.77
2023-02-18T02:12:25.471Z,14.76
2023-02-18T02:14:51.810Z,14.78
2023-02-18T02:17:18.618Z,14.75
2023-02-18T02:19:45.597Z,14.77
2023-02-18T02:22:12.122Z,14.76
2023-02-18T02:24:39.044Z,14.76
2023-02-18T02:27:07.013Z,14.74
2023-02-18T02:29:33.989Z,14.75
2023-02-18T02:32:00.409Z,14.76
2023-02-18T02:34:26.810Z,14.77
2023-02-18T02:36:53.266Z,14.76
2023-02-18T02:39:19.545Z,14.75
2023-02-18T02:41:46.503Z,14.76
2023-02-18T02:44:12.868Z,14.74
2023-02-18T02:46:39.295Z,14.72
2023-02-18T02:49:05.725Z,14.74
2023-02-18T02:51:32.271Z,14.72
2023-02-18T02:53:59.030Z,14.73
2023-02-18T02:56:25.507Z,14.72
2023-02-18T02:58:51.901Z,14.72
2023-02-18T03:01:18.319Z,14.71
2023-02-18T03:03:45.352Z,14.71
2023-02-18T03:06:12.078Z,14.72
2023-02-18T03:08:38.529Z,14.71
2023-02-18T03:11:05.063Z,14.72
2023-02-18T03:13:31.716Z,14.73
2023-02-18T03:15:58.558Z,14.70
2023-02-18T03:18:24.917Z,14.70
2023-02-18T03:20:51.193Z,14.71
2023-02-18T03:23:18.006Z,14.71
2023-02-18T03:25:44.796Z,14.71
2023-02-18T03:28:11.401Z,14.71
2023-02-18T03:30:37.761Z,14.69
2023-02-18T03:33:04.142Z,14.71
2023-02-18T03:35:30.470Z,14.71
2023-02-18T03:37:56.806Z,14.69
2023-02-18T03:40:23.308Z,14.69
2023-02-18T03:42:49.671Z,14.69
2023-02-18T03:45:16.079Z,14.69
2023-02-18T03:47:42.510Z,14.70
2023-02-18T03:50:08.897Z,14.70
2023-02-18T03:52:35.459Z,14.70
2023-02-18T03:55:01.805Z,14.69
2023-02-18T03:57:28.176Z,14.69
2023-02-18T03:59:54.656Z,14.68
2023-02-18T04:02:21.005Z,14.68
2023-02-18T04:04:47.457Z,14.67
2023-02-18T04:07:13.808Z,14.67
2023-02-18T04:09:40.194Z,14.66
2023-02-18T04:12:07.040Z,14.66
2023-02-18T04:14:33.356Z,14.66
2023-02-18T04:17:00.273Z,14.66
2023-02-18T04:19:26.888Z,14.64
2023-02-18T04:21:53.387Z,14.66
2023-02-18T04:24:19.757Z,14.65
2023-02-18T04:26:46.144Z,14.66
2023-02-18T04:29:12.507Z,14.66
2023-02-18T04:31:39.477Z,14.66
2023-02-18T04:34:05.918Z,14.66
2023-02-18T04:36:32.254Z,14.64
2023-02-18T04:38:58.898Z,14.65
2023-02-18T04:41:25.240Z,14.64
2023-02-18T04:43:51.783Z,14.65
2023-02-18T04:46:18.202Z,14.65
2023-02-18T04:48:44.817Z,14.65
2023-02-18T04:51:11.208Z,14.64
2023-02-18T04:53:37.620Z,14.65
2023-02-18T04:56:03.992Z,14.65
2023-02-18T04:58:30.789Z,14.63
2023-02-18T05:00:57.263Z,14.63
2023-02-18T05:03:23.995Z,14.63
2023-02-18T05:05:50.769Z,14.63
2023-02-18T05:08:17.058Z,14.63
2023-02-18T05:10:44.069Z,14.63
2023-02-18T05:13:10.432Z,14.62
2023-02-18T05:15:37.062Z,14.62
2023-02-18T05:18:03.637Z,14.61
2023-02-18T05:20:30.066Z,14.63
2023-02-18T05:22:56.876Z,14.60
2023-02-18T05:25:23.605Z,14.61
2023-02-18T05:27:49.979Z,14.62
2023-02-18T05:30:16.503Z,14.60
2023-02-18T05:32:43.082Z,14.60
2023-02-18T05:35:09.423Z,14.61
2023-02-18T05:37:35.754Z,14.61
2023-02-18T05:40:02.105Z,14.61
2023-02-18T05:42:28.885Z,14.60
2023-02-18T05:44:55.751Z,14.61
2023-02-18T05:47:22.235Z,14.60
2023-02-18T05:49:48.648Z,14.60
2023-02-18T05:52:14.990Z,14.60
2023-02-18T05:54:41.306Z,14.59
2023-02-18T05:57:07.613Z,14.59
2023-02-18T05:59:34.213Z,14.59
2023-02-18T06:02:00.613Z,14.57
2023-02-18T06:04:26.961Z,14.59
2023-02-18T06:06:53.751Z,14.58
2023-02-18T06:09:20.100Z,14.58
2023-02-18T06:11:47.626Z,14.58
2023-02-18T06:14:14.050Z,14.58
2023-02-18T06:16:40.416Z,14.58
2023-02-18T06:19:06.974Z,14.59
2023-02-18T06:21:33.556Z,14.58
2023-02-18T06:24:00.121Z,14.58
2023-02-18T06:26:27.123Z,14.57
2023-02-18T06:28:53.505Z,14.58
2023-02-18T06:31:20.184Z,14.59
2023-02-18T06:33:46.686Z,14.57
2023-02-18T06:36:13.217Z,14.58
2023-02-18T06:38:39.642Z,14.59
2023-02-18T06:41:05.974Z,14.58
2023-02-18T06:43:32.493Z,14.58
2023-02-18T06:45:58.768Z,14.57
2023-02-18T06:48:25.149Z,14.56
2023-02-18T06:50:51.660Z,14.56
2023-02-18T06:53:18.094Z,14.57
2023-02-18T06:55:44.445Z,14.55
2023-02-18T06:58:10.887Z,14.57
2023-02-18T07:00:37.386Z,14.55
2023-02-18T07:03:03.962Z,14.56
2023-02-18T07:05:30.301Z,14.57
2023-02-18T07:07:56.624Z,14.54
2023-02-18T07:10:23.540Z,14.55
2023-02-18T07:12:49.894Z,14.55
2023-02-18T07:15:16.707Z,14.56
2023-02-18T07:17:43.134Z,14.55
2023-02-18T07:20:09.510Z,14.54
2023-02-18T07:22:35.900Z,14.55
2023-02-18T07:25:02.790Z,14.53
2023-02-18T07:27:29.554Z,14.53
2023-02-18T07:29:55.930Z,14.54
2023-02-18T07:32:22.962Z,14.52
2023-02-18T07:34:49.430Z,14.54
2023-02-18T07:37:16.169Z,14.55
2023-02-18T07:39:43.056Z,14.54
2023-02-18T07:42:09.465Z,14.54
2023-02-18T07:44:35.824Z,14.53
2023-02-18T07:47:02.199Z,14.54
2023-02-18T07:49:29.057Z,14.52
2023-02-18T07:51:55.438Z,14.53
2023-02-18T07:54:22.157Z,14.53
2023-02-18T07:56:48.537Z,14.52
2023-02-18T07:59:14.892Z,14.53
2023-02-18T08:01:42.593Z,14.53
2023-02-18T08:04:10.502Z,14.54
2023-02-18T08:06:36.848Z,14.52
2023-02-18T08:09:03.192Z,14.52
2023-02-18T08:11:29.558Z,14.50
2023-02-18T08:13:55.991Z,14.51
2023-02-18T08:16:22.657Z,14.51
2023-02-18T08:18:48.991Z,14.51
2023-02-18T08:21:15.393Z,14.50
2023-02-18T08:23:41.840Z,14.50
2023-02-18T08:26:08.470Z,14.50
2023-02-18T08:28:35.730Z,14.49
2023-02-18T08:31:02.098Z,14.50
2023-02-18T08:33:28.567Z,14.50
2023-02-18T08:35:55.074Z,14.50
2023-02-18T08:38:21.659Z,14.49
2023-02-18T08:40:48.034Z,14.49
2023-02-18T08:43:14.962Z,14.48
2023-02-18T08:45:41.690Z,14.49
2023-02-18T08:48:17.854Z,14.49
2023-02-18T08:50:46.525Z,14.48
2023-02-18T08:53:12.906Z,14.48
2023-02-18T08:55:39.237Z,14.47
2023-02-18T08:58:05.609Z,14.47
2023-02-18T09:00:31.962Z,14.46
2023-02-18T09:02:58.261Z,14.48
2023-02-18T09:05:25.614Z,14.46
2023-02-18T09:07:52.017Z,14.43
2023-02-18T09:10:18.594Z,14.46
2023-02-18T09:12:45.473Z,14.46
2023-02-18T09:15:11.859Z,14.45
2023-02-18T09:17:38.617Z,14.44
2023-02-18T09:20:05.806Z,14.45
2023-02-18T09:22:32.172Z,14.47
2023-02-18T09:24:58.500Z,14.58
2023-02-18T09:27:24.925Z,14.69
2023-02-18T09:29:51.515Z,14.82
2023-02-18T09:32:32.377Z,14.96
2023-02-18T09:35:00.250Z,15.13
2023-02-18T09:37:27.305Z,15.35
2023-02-18T09:39:53.679Z,15.48
2023-02-18T09:42:21.833Z,15.62
2023-02-18T09:44:54.958Z,15.78
2023-02-18T09:47:21.308Z,15.93
2023-02-18T09:49:48.051Z,16.07
2023-02-18T09:52:14.418Z,16.23
2023-02-18T09:54:40.876Z,16.38
2023-02-18T09:57:07.202Z,16.53
2023-02-18T09:59:33.596Z,16.68
2023-02-18T10:02:02.223Z,16.83
2023-02-18T10:04:29.121Z,16.95
2023-02-18T10:06:55.761Z,17.11
2023-02-18T10:09:22.319Z,17.21
2023-02-18T10:11:48.861Z,17.36
2023-02-18T10:14:15.362Z,17.45
2023-02-18T10:16:41.772Z,17.68
2023-02-18T10:19:08.253Z,17.76
2023-02-18T10:21:34.606Z,17.88
2023-02-18T10:24:01.173Z,18.00
2023-02-18T10:26:27.578Z,18.11
2023-02-18T10:28:53.968Z,18.31
2023-02-18T10:31:20.552Z,18.37
2023-02-18T10:33:47.207Z,18.46
2023-02-18T10:36:13.525Z,18.56
2023-02-18T10:38:40.109Z,18.67
2023-02-18T10:41:06.885Z,18.81
2023-02-18T10:43:33.542Z,18.94
2023-02-18T10:46:00.120Z,18.94
2023-02-18T10:48:26.831Z,18.96
2023-02-18T10:50:54.302Z,19.02
2023-02-18T10:53:20.638Z,19.08
2023-02-18T10:55:46.922Z,19.12
2023-02-18T10:58:13.208Z,19.18
2023-02-18T11:00:39.639Z,19.22
2023-02-18T11:03:08.052Z,19.32
2023-02-18T11:05:35.233Z,19.35
2023-02-18T11:08:02.117Z,19.41
2023-02-18T11:10:28.476Z,19.47
2023-02-18T11:12:54.797Z,19.49
2023-02-18T11:15:21.450Z,19.53
2023-02-18T11:17:48.110Z,19.58
2023-02-18T11:20:15.062Z,19.57
2023-02-18T11:22:41.698Z,19.57
2023-02-18T11:25:08.551Z,19.48
2023-02-18T11:27:35.304Z,19.50
2023-02-18T11:30:02.254Z,19.56
2023-02-18T11:32:29.044Z,19.57
2023-02-18T11:34:55.833Z,19.59
2023-02-18T11:37:22.538Z,19.57
2023-02-18T11:39:48.823Z,19.59
2023-02-18T11:42:15.563Z,19.60
2023-02-18T11:44:42.350Z,19.62
2023-02-18T11:47:08.999Z,19.64
2023-02-18T11:49:35.376Z,19.64
2023-02-18T11:52:01.808Z,19.66
2023-02-18T11:54:28.150Z,19.63
2023-02-18T11:56:55.114Z,19.62
2023-02-18T11:59:22.041Z,19.63
2023-02-18T12:01:48.765Z,19.62
2023-02-18T12:04:15.658Z,19.63
2023-02-18T12:06:41.966Z,19.67
2023-02-18T12:09:08.374Z,19.68
2023-02-18T12:11:34.972Z,19.70
2023-02-18T12:14:01.383Z,19.69
2023-02-18T12:16:27.873Z,19.66
2023-02-18T12:18:54.688Z,19.71
2023-02-18T12:21:21.428Z,19.71
2023-02-18T12:23:48.218Z,19.74
2023-02-18T12:26:14.561Z,19.77
2023-02-18T12:28:40.942Z,19.75
2023-02-18T12:31:08.495Z,19.74
2023-02-18T12:33:37.247Z,19.76
2023-02-18T12:36:03.774Z,19.77
2023-02-18T12:38:30.162Z,19.75
2023-02-18T12:40:56.819Z,19.77
2023-02-18T12:43:23.817Z,19.78
2023-02-18T12:45:50.662Z,19.77
2023-02-18T12:48:17.669Z,19.78
2023-02-18T12:50:44.422Z,19.78
2023-02-18T12:53:10.870Z,19.76
2023-02-18T12:55:37.206Z,19.74
2023-02-18T12:58:03.518Z,19.76
2023-02-18T13:00:31.112Z,19.75
2023-02-18T13:02:58.708Z,19.75
2023-02-18T13:05:25.177Z,19.76
2023-02-18T13:07:52.473Z,19.75
2023-02-18T13:10:18.938Z,19.76
2023-02-18T13:12:45.241Z,19.75
2023-02-18T13:15:12.405Z,19.73
2023-02-18T13:17:38.949Z,19.67
2023-02-18T13:20:05.298Z,19.94
2023-02-18T13:22:31.758Z,19.89
2023-02-18T13:24:58.087Z,19.86
2023-02-18T13:27:24.744Z,19.89
2023-02-18T13:29:51.277Z,19.91
2023-02-18T13:32:19.352Z,19.97
2023-02-18T13:34:45.867Z,19.98
2023-02-18T13:37:12.284Z,20.00
2023-02-18T13:39:39.159Z,20.01
2023-02-18T13:42:06.013Z,20.05
2023-02-18T13:44:32.306Z,20.07
2023-02-18T13:46:58.787Z,20.10
2023-02-18T13:49:25.353Z,20.05
2023-02-18T13:51:52.062Z,20.05
2023-02-18T13:54:18.742Z,20.06
2023-02-18T13:56:45.989Z,20.08
2023-02-18T13:59:12.770Z,20.06
2023-02-18T14:01:39.825Z,20.08
2023-02-18T14:04:07.395Z,20.06
2023-02-18T14:06:33.774Z,20.05
2023-02-18T14:09:00.127Z,20.06
2023-02-18T14:11:26.553Z,20.08
2023-02-18T14:13:53.068Z,20.09
2023-02-18T14:16:19.928Z,20.10
2023-02-18T14:18:46.264Z,20.12
2023-02-18T14:21:13.319Z,20.02
2023-02-18T14:23:40.342Z,20.07
2023-02-18T14:26:06.733Z,20.09
2023-02-18T14:28:33.142Z,20.09
2023-02-18T14:31:00.090Z,20.11
2023-02-18T14:33:26.933Z,20.11
2023-02-18T14:35:53.264Z,20.08
2023-02-18T14:38:19.770Z,20.07
2023-02-18T14:40:46.750Z,20.10
2023-02-18T14:43:13.076Z,20.15
2023-02-18T14:45:40.437Z,20.17
2023-02-18T14:48:06.829Z,20.20
2023-02-18T14:50:33.192Z,20.21
2023-02-18T14:53:00.058Z,20.22
2023-02-18T14:55:26.519Z,20.23
2023-02-18T14:57:53.381Z,20.26
2023-02-18T15:00:20.369Z,20.27
2023-02-18T15:02:46.726Z,20.25
2023-02-18T15:05:13.498Z,20.28
2023-02-18T15:07:39.785Z,20.23
2023-02-18T15:10:06.136Z,20.26
2023-02-18T15:12:32.493Z,20.27
2023-02-18T15:15:00.174Z,20.27
2023-02-18T15:17:26.547Z,20.31
2023-02-18T15:19:52.886Z,20.29
2023-02-18T15:22:19.889Z,20.25
2023-02-18T15:24:46.344Z,20.17
2023-02-18T15:27:12.691Z,20.11
2023-02-18T15:29:39.204Z,20.07
2023-02-18T15:32:06.260Z,20.03
2023-02-18T15:34:33.263Z,20.00
2023-02-18T15:36:59.561Z,19.99
2023-02-18T15:39:25.952Z,19.95
2023-02-18T15:41:52.848Z,19.95
2023-02-18T15:44:19.275Z,19.85
2023-02-18T15:46:46.828Z,19.84
2023-02-18T15:49:13.138Z,19.82
2023-02-18T15:51:39.480Z,19.80
2023-02-18T15:54:07.033Z,19.78
2023-02-18T15:56:33.831Z,19.75
2023-02-18T15:59:00.293Z,19.74
2023-02-18T16:01:27.411Z,19.73
2023-02-18T16:03:53.762Z,19.69
2023-02-18T16:06:20.166Z,19.69
2023-02-18T16:08:46.965Z,19.59
2023-02-18T16:11:13.307Z,19.63
2023-02-18T16:13:39.647Z,19.57
2023-02-18T16:16:06.097Z,19.57
2023-02-18T16:18:32.760Z,19.55
2023-02-18T16:20:59.094Z,19.57
2023-02-18T16:23:26.518Z,19.59
2023-02-18T16:25:52.894Z,19.57
2023-02-18T16:28:19.589Z,19.54
2023-02-18T16:30:46.073Z,19.53
2023-02-18T16:33:12.686Z,19.52
2023-02-18T16:35:49.579Z,19.52
2023-02-18T16:38:17.242Z,19.50
2023-02-18T16:40:43.743Z,19.47
2023-02-18T16:43:10.044Z,19.45
2023-02-18T16:45:36.783Z,19.46
2023-02-18T16:48:03.174Z,19.43
2023-02-18T16:50:29.527Z,19.46
2023-02-18T16:52:56.010Z,19.43
2023-02-18T16:55:22.449Z,19.42
2023-02-18T16:57:48.846Z,19.42
2023-02-18T17:00:16.015Z,19.38
2023-02-18T17:02:43.158Z,19.31
2023-02-18T17:05:20.663Z,19.36
2023-02-18T17:07:52.607Z,19.30
2023-02-18T17:10:19.174Z,19.32
2023-02-18T17:12:45.607Z,19.25
2023-02-18T17:15:12.516Z,19.26
2023-02-18T17:17:38.905Z,19.26
2023-02-18T17:20:05.177Z,19.24
2023-02-18T17:22:31.477Z,19.24
2023-02-18T17:24:58.176Z,19.21
2023-02-18T17:27:24.619Z,19.22
2023-02-18T17:29:50.983Z,19.22
2023-02-18T17:32:18.236Z,19.22
2023-02-18T17:34:45.087Z,19.22
2023-02-18T17:37:12.073Z,19.21
2023-02-18T17:39:38.582Z,19.23
2023-02-18T17:42:05.131Z,19.17
2023-02-18T17:44:31.692Z,19.11
2023-02-18T17:46:58.423Z,19.11
2023-02-18T17:49:24.789Z,19.11
2023-02-18T17:51:51.137Z,19.12
2023-02-18T17:54:18.327Z,19.13
2023-02-18T17:56:45.335Z,19.12
2023-02-18T17:59:12.297Z,19.12
2023-02-18T18:01:39.086Z,19.08
2023-02-18T18:04:05.771Z,19.09
2023-02-18T18:06:32.139Z,19.02
2023-02-18T18:08:58.528Z,19.03
2023-02-18T18:11:24.902Z,19.03
2023-02-18T18:13:51.232Z,19.05
2023-02-18T18:16:17.640Z,19.04
2023-02-18T18:18:44.063Z,19.03
2023-02-18T18:21:10.680Z,19.02
2023-02-18T18:23:37.184Z,19.01
2023-02-18T18:26:03.470Z,18.96
2023-02-18T18:28:31.849Z,18.93
2023-02-18T18:30:59.833Z,18.91
2023-02-18T18:33:26.147Z,18.91
2023-02-18T18:35:52.542Z,18.88
2023-02-18T18:38:18.829Z,18.87
2023-02-18T18:40:45.127Z,18.87
2023-02-18T18:43:11.640Z,18.84
2023-02-18T18:45:38.145Z,18.86
2023-02-18T18:48:05.175Z,18.81
2023-02-18T18:50:31.545Z,18.82
2023-02-18T18:52:57.834Z,18.78
2023-02-18T18:55:24.163Z,18.77
2023-02-18T18:57:51.103Z,18.80
2023-02-18T19:00:17.509Z,18.75
2023-02-18T19:02:43.870Z,18.76
2023-02-18T19:05:10.296Z,18.73
2023-02-18T19:07:36.674Z,18.75
2023-02-18T19:10:03.007Z,18.71
2023-02-18T19:12:29.744Z,18.69
2023-02-18T19:14:56.054Z,18.70
2023-02-18T19:17:22.612Z,18.70
2023-02-18T19:19:48.973Z,18.69
2023-02-18T19:22:15.411Z,18.68
2023-02-18T19:24:41.772Z,18.66
2023-02-18T19:27:08.153Z,18.62
2023-02-18T19:29:34.691Z,18.62
2023-02-18T19:32:01.312Z,18.55
2023-02-18T19:34:27.788Z,18.54
2023-02-18T19:36:54.160Z,18.53
2023-02-18T19:39:21.089Z,18.50
2023-02-18T19:41:47.468Z,18.48
2023-02-18T19:44:13.898Z,18.49
2023-02-18T19:46:40.460Z,18.48
2023-02-18T19:49:07.501Z,18.41
2023-02-18T19:51:33.855Z,18.44
2023-02-18T19:54:00.158Z,18.39
2023-02-18T19:56:27.524Z,18.40
2023-02-18T19:58:53.900Z,18.39
2023-02-18T20:01:20.263Z,18.37
2023-02-18T20:03:46.955Z,18.36
2023-02-18T20:06:13.515Z,18.31
2023-02-18T20:08:39.846Z,18.33
2023-02-18T20:11:06.362Z,18.29
2023-02-18T20:13:32.700Z,18.26
2023-02-18T20:15:59.111Z,18.27
2023-02-18T20:18:25.499Z,18.31
2023-02-18T20:20:51.946Z,18.26
2023-02-18T20:23:18.497Z,18.24
2023-02-18T20:25:44.865Z,18.23
2023-02-18T20:28:11.451Z,18.26
2023-02-18T20:30:37.794Z,18.19
2023-02-18T20:33:04.337Z,18.14
2023-02-18T20:35:30.689Z,18.19
2023-02-18T20:37:57.425Z,18.17
2023-02-18T20:40:23.798Z,18.09
2023-02-18T20:42:50.258Z,18.13
2023-02-18T20:45:16.696Z,18.11
2023-02-18T20:47:43.308Z,18.09
2023-02-18T20:50:09.716Z,18.13
2023-02-18T20:52:36.144Z,18.11
2023-02-18T20:55:02.549Z,18.06
2023-02-18T20:57:29.033Z,18.05
2023-02-18T20:59:55.511Z,18.02
2023-02-18T21:02:21.901Z,18.04
2023-02-18T21:04:48.201Z,18.05
2023-02-18T21:07:14.558Z,18.00
2023-02-18T21:09:41.015Z,17.98
2023-02-18T21:12:07.508Z,17.95
2023-02-18T21:14:33.995Z,17.95
2023-02-18T21:17:00.403Z,17.96
2023-02-18T21:19:26.662Z,17.97
2023-02-18T21:21:53.539Z,17.94
2023-02-18T21:24:19.934Z,17.96
2023-02-18T21:26:46.423Z,17.98
2023-02-18T21:29:12.733Z,17.94
2023-02-18T21:31:39.463Z,17.92
2023-02-18T21:34:06.317Z,17.91
2023-02-18T21:36:33.061Z,17.89
2023-02-18T21:38:59.482Z,17.84
2023-02-18T21:41:25.869Z,17.87
2023-02-18T21:43:52.201Z,17.87
2023-02-18T21:46:18.711Z,17.85
2023-02-18T21:48:45.062Z,17.80
2023-02-18T21:51:11.522Z,17.79
2023-02-18T21:53:38.172Z,17.77
2023-02-18T21:56:04.716Z,17.79
2023-02-18T21:58:31.045Z,17.79
2023-02-18T22:00:57.510Z,17.72
2023-02-18T22:03:23.957Z,17.75
2023-02-18T22:05:50.273Z,17.78
2023-02-18T22:08:17.072Z,17.78
2023-02-18T22:10:43.475Z,17.78
2023-02-18T22:13:10.019Z,17.75
2023-02-18T22:15:36.387Z,17.76
2023-02-18T22:18:02.718Z,17.67
2023-02-18T22:20:29.226Z,17.73
2023-02-18T22:22:55.656Z,17.69
2023-02-18T22:25:22.155Z,17.69
2023-02-18T22:27:48.819Z,17.69
2023-02-18T22:30:15.349Z,17.68
2023-02-18T22:32:41.940Z,17.65
2023-02-18T22:35:08.801Z,17.66
2023-02-18T22:37:35.084Z,17.65
2023-02-18T22:40:01.372Z,17.62
2023-02-18T22:42:27.990Z,17.62
2023-02-18T22:44:54.440Z,17.58
2023-02-18T22:47:21.222Z,17.58
2023-02-18T22:49:47.718Z,17.62
2023-02-18T22:52:14.255Z,17.54
2023-02-18T22:54:40.672Z,17.50
2023-02-18T22:57:07.438Z,17.46
2023-02-18T22:59:33.798Z,17.48
2023-02-18T23:02:00.157Z,17.55
2023-02-18T23:04:26.513Z,17.58
2023-02-18T23:06:52.949Z,17.57
2023-02-18T23:09:19.277Z,17.53
2023-02-18T23:11:45.569Z,17.53
2023-02-18T23:14:12.019Z,17.49
2023-02-18T23:16:38.389Z,17.50
2023-02-18T23:19:04.781Z,17.43
2023-02-18T23:21:31.159Z,17.47
2023-02-18T23:23:57.878Z,17.45
2023-02-18T23:26:24.228Z,17.41
2023-02-18T23:28:51.084Z,17.39
2023-02-18T23:31:17.732Z,17.45
2023-02-18T23:33:44.205Z,17.41
2023-02-18T23:36:10.880Z,17.39
2023-02-18T23:38:37.280Z,17.39
2023-02-18T23:41:03.702Z,17.33
2023-02-18T23:43:30.045Z,17.34
2023-02-18T23:45:57.068Z,17.36
2023-02-18T23:48:23.473Z,17.34
2023-02-18T23:50:50.016Z,17.34
2023-02-18T23:53:16.719Z,17.34
2023-02-18T23:55:42.974Z,17.32
2023-02-18T23:58:09.291Z,17.33
